Terminal Aerodrome Forecast
Issued by NWS Pittsburgh, PA

Current Version | Previous Version | Graphics & Text | Print | Product List | Glossary On
Versions: 1 2 3 4 5 6 7 8 9 10 11 12 13 14 15 16 17 18 19 20 21 22 23 24
000
FTUS41 KPBZ 252102 AAA
TAFPIT
TAF AMD
KPIT 252102Z 2521/2624 08008KT P6SM SCT060 BKN100
     FM252200 09005KT P6SM -SHRA OVC035
     FM260400 03005KT P6SM OVC080
     FM261400 35005KT P6SM BKN050=

USA.gov is the U.S. government's official web portal to all federal, state and local government web resources and services.